sensor_id;sensor_type;location;lat;lon;timestamp;temperature;humidity
18207;DHT22;9229;52.354;20.886;2022-09-09T00:04:28;12.80;99.90
18207;DHT22;9229;52.354;20.886;2022-09-09T00:09:35;12.70;99.90
18207;DHT22;9229;52.354;20.886;2022-09-09T00:14:48;12.60;99.90
18207;DHT22;9229;52.354;20.886;2022-09-09T00:19:55;12.50;99.90
18207;DHT22;9229;52.354;20.886;2022-09-09T00:25:08;12.50;99.90
18207;DHT22;9229;52.354;20.886;2022-09-09T00:30:17;12.40;99.90
18207;DHT22;9229;52.354;20.886;2022-09-09T00:35:24;12.30;99.90
18207;DHT22;9229;52.354;20.886;2022-09-09T00:40:31;12.20;99.90
18207;DHT22;9229;52.354;20.886;2022-09-09T00:45:54;12.20;99.90
18207;DHT22;9229;52.354;20.886;2022-09-09T00:51:07;12.20;99.90
18207;DHT22;9229;52.354;20.886;2022-09-09T00:56:14;12.10;99.90
18207;DHT22;9229;52.354;20.886;2022-09-09T01:01:17;12.10;99.90
18207;DHT22;9229;52.354;20.886;2022-09-09T01:06:24;12.10;99.90
18207;DHT22;9229;52.354;20.886;2022-09-09T01:11:37;12.00;99.90
18207;DHT22;9229;52.354;20.886;2022-09-09T01:16:44;12.00;99.90
18207;DHT22;9229;52.354;20.886;2022-09-09T01:21:55;12.00;99.90
18207;DHT22;9229;52.354;20.886;2022-09-09T01:27:05;12.00;99.90
18207;DHT22;9229;52.354;20.886;2022-09-09T01:32:37;12.00;99.90
18207;DHT22;9229;52.354;20.886;2022-09-09T01:37:39;12.00;99.90
18207;DHT22;9229;52.354;20.886;2022-09-09T01:42:43;12.00;99.90
18207;DHT22;9229;52.354;20.886;2022-09-09T01:47:46;12.00;99.90
18207;DHT22;9229;52.354;20.886;2022-09-09T01:52:56;12.60;99.90
18207;DHT22;9229;52.354;20.886;2022-09-09T01:58:11;12.00;99.90
18207;DHT22;9229;52.354;20.886;2022-09-09T02:03:26;12.00;99.90
18207;DHT22;9229;52.354;20.886;2022-09-09T02:08:45;12.00;99.90
18207;DHT22;9229;52.354;20.886;2022-09-09T02:13:52;12.00;99.90
18207;DHT22;9229;52.354;20.886;2022-09-09T02:19:01;12.00;99.90
18207;DHT22;9229;52.354;20.886;2022-09-09T02:24:15;12.00;99.90
18207;DHT22;9229;52.354;20.886;2022-09-09T02:29:29;12.00;99.90
18207;DHT22;9229;52.354;20.886;2022-09-09T02:34:36;12.00;99.90
18207;DHT22;9229;52.354;20.886;2022-09-09T02:39:41;12.00;99.90
18207;DHT22;9229;52.354;20.886;2022-09-09T02:44:48;12.10;99.90
18207;DHT22;9229;52.354;20.886;2022-09-09T02:49:59;12.00;99.90
18207;DHT22;9229;52.354;20.886;2022-09-09T02:55:12;12.10;99.90
18207;DHT22;9229;52.354;20.886;2022-09-09T03:00:26;12.10;99.90
18207;DHT22;9229;52.354;20.886;2022-09-09T03:05:33;12.10;99.90
18207;DHT22;9229;52.354;20.886;2022-09-09T03:10:36;12.10;99.90
18207;DHT22;9229;52.354;20.886;2022-09-09T03:15:40;12.10;99.90
18207;DHT22;9229;52.354;20.886;2022-09-09T03:20:46;12.20;99.90
18207;DHT22;9229;52.354;20.886;2022-09-09T03:25:50;12.10;99.90
18207;DHT22;9229;52.354;20.886;2022-09-09T03:31:02;12.20;99.90
18207;DHT22;9229;52.354;20.886;2022-09-09T03:36:08;12.20;99.90
18207;DHT22;9229;52.354;20.886;2022-09-09T03:41:11;12.20;99.90
18207;DHT22;9229;52.354;20.886;2022-09-09T03:46:15;12.20;99.90
18207;DHT22;9229;52.354;20.886;2022-09-09T03:51:17;12.20;99.90
18207;DHT22;9229;52.354;20.886;2022-09-09T03:56:19;12.20;99.90
18207;DHT22;9229;52.354;20.886;2022-09-09T04:01:23;12.20;99.90
18207;DHT22;9229;52.354;20.886;2022-09-09T04:06:26;12.20;99.90
18207;DHT22;9229;52.354;20.886;2022-09-09T04:11:28;12.30;99.90
18207;DHT22;9229;52.354;20.886;2022-09-09T04:16:34;12.30;99.90
18207;DHT22;9229;52.354;20.886;2022-09-09T04:21:39;12.30;99.90
18207;DHT22;9229;52.354;20.886;2022-09-09T04:26:42;12.40;99.90
18207;DHT22;9229;52.354;20.886;2022-09-09T04:31:48;12.40;99.90
18207;DHT22;9229;52.354;20.886;2022-09-09T04:36:50;12.40;99.90
18207;DHT22;9229;52.354;20.886;2022-09-09T04:41:53;12.40;99.90
18207;DHT22;9229;52.354;20.886;2022-09-09T04:46:58;12.40;99.90
18207;DHT22;9229;52.354;20.886;2022-09-09T04:52:01;12.50;99.90
18207;DHT22;9229;52.354;20.886;2022-09-09T04:57:03;12.50;99.90
18207;DHT22;9229;52.354;20.886;2022-09-09T05:02:07;11.80;99.90
18207;DHT22;9229;52.354;20.886;2022-09-09T05:07:09;12.50;99.90
18207;DHT22;9229;52.354;20.886;2022-09-09T05:12:11;12.50;99.90
18207;DHT22;9229;52.354;20.886;2022-09-09T05:17:22;12.50;99.90
18207;DHT22;9229;52.354;20.886;2022-09-09T05:22:24;12.60;99.90
18207;DHT22;9229;52.354;20.886;2022-09-09T05:27:28;12.60;99.90
18207;DHT22;9229;52.354;20.886;2022-09-09T05:32:35;12.60;99.90
18207;DHT22;9229;52.354;20.886;2022-09-09T05:37:37;12.60;99.90
18207;DHT22;9229;52.354;20.886;2022-09-09T05:42:41;13.90;99.90
18207;DHT22;9229;52.354;20.886;2022-09-09T05:47:45;12.70;99.90
18207;DHT22;9229;52.354;20.886;2022-09-09T05:52:56;12.70;99.90
18207;DHT22;9229;52.354;20.886;2022-09-09T05:57:58;12.80;99.90
18207;DHT22;9229;52.354;20.886;2022-09-09T06:03:04;12.80;99.90
18207;DHT22;9229;52.354;20.886;2022-09-09T06:08:06;12.80;99.90
18207;DHT22;9229;52.354;20.886;2022-09-09T06:13:08;12.90;99.90
18207;DHT22;9229;52.354;20.886;2022-09-09T06:18:12;13.50;99.90
18207;DHT22;9229;52.354;20.886;2022-09-09T06:23:14;13.10;99.90
18207;DHT22;9229;52.354;20.886;2022-09-09T06:28:16;13.10;99.90
18207;DHT22;9229;52.354;20.886;2022-09-09T06:33:20;13.40;99.90
18207;DHT22;9229;52.354;20.886;2022-09-09T06:38:22;13.30;99.90
18207;DHT22;9229;52.354;20.886;2022-09-09T06:43:25;13.40;99.90
18207;DHT22;9229;52.354;20.886;2022-09-09T06:48:31;14.10;99.90
18207;DHT22;9229;52.354;20.886;2022-09-09T06:53:35;13.60;99.90
18207;DHT22;9229;52.354;20.886;2022-09-09T06:58:39;13.70;99.90
18207;DHT22;9229;52.354;20.886;2022-09-09T07:03:49;13.80;99.90
18207;DHT22;9229;52.354;20.886;2022-09-09T07:08:53;13.90;99.90
18207;DHT22;9229;52.354;20.886;2022-09-09T07:13:59;13.90;99.90
18207;DHT22;9229;52.354;20.886;2022-09-09T07:19:03;15.20;99.90
18207;DHT22;9229;52.354;20.886;2022-09-09T07:24:06;14.00;99.90
18207;DHT22;9229;52.354;20.886;2022-09-09T07:29:12;14.00;99.90
18207;DHT22;9229;52.354;20.886;2022-09-09T07:34:17;14.70;99.90
18207;DHT22;9229;52.354;20.886;2022-09-09T07:39:20;14.10;99.90
18207;DHT22;9229;52.354;20.886;2022-09-09T07:44:26;14.10;99.90
18207;DHT22;9229;52.354;20.886;2022-09-09T07:49:40;14.10;99.90
18207;DHT22;9229;52.354;20.886;2022-09-09T07:54:43;14.30;99.90
18207;DHT22;9229;52.354;20.886;2022-09-09T07:59:47;14.50;99.90
18207;DHT22;9229;52.354;20.886;2022-09-09T08:04:51;14.60;99.90
18207;DHT22;9229;52.354;20.886;2022-09-09T08:09:54;14.70;99.90
18207;DHT22;9229;52.354;20.886;2022-09-09T08:15:03;14.80;99.90
18207;DHT22;9229;52.354;20.886;2022-09-09T08:20:09;14.90;99.90
18207;DHT22;9229;52.354;20.886;2022-09-09T08:25:12;14.90;99.90
18207;DHT22;9229;52.354;20.886;2022-09-09T08:30:16;15.00;99.90
18207;DHT22;9229;52.354;20.886;2022-09-09T08:35:19;15.10;99.90
18207;DHT22;9229;52.354;20.886;2022-09-09T08:40:28;15.20;99.90
18207;DHT22;9229;52.354;20.886;2022-09-09T08:45:35;15.20;99.90
18207;DHT22;9229;52.354;20.886;2022-09-09T08:50:43;15.30;99.90
18207;DHT22;9229;52.354;20.886;2022-09-09T08:55:52;15.30;99.90
18207;DHT22;9229;52.354;20.886;2022-09-09T09:01:35;15.30;99.90
18207;DHT22;9229;52.354;20.886;2022-09-09T09:06:51;15.40;99.90
18207;DHT22;9229;52.354;20.886;2022-09-09T09:11:59;15.40;99.90
18207;DHT22;9229;52.354;20.886;2022-09-09T09:17:11;15.40;99.90
18207;DHT22;9229;52.354;20.886;2022-09-09T09:22:20;15.60;99.90
18207;DHT22;9229;52.354;20.886;2022-09-09T09:27:31;15.60;99.90
18207;DHT22;9229;52.354;20.886;2022-09-09T09:32:34;15.60;99.90
18207;DHT22;9229;52.354;20.886;2022-09-09T09:37:41;15.30;99.90
18207;DHT22;9229;52.354;20.886;2022-09-09T09:42:51;15.20;99.90
18207;DHT22;9229;52.354;20.886;2022-09-09T09:47:59;15.20;99.90
18207;DHT22;9229;52.354;20.886;2022-09-09T09:53:04;15.10;99.90
18207;DHT22;9229;52.354;20.886;2022-09-09T09:58:15;15.00;99.90
18207;DHT22;9229;52.354;20.886;2022-09-09T10:03:22;15.00;99.90
18207;DHT22;9229;52.354;20.886;2022-09-09T10:08:28;15.20;99.90
18207;DHT22;9229;52.354;20.886;2022-09-09T10:13:35;15.20;99.90
18207;DHT22;9229;52.354;20.886;2022-09-09T10:18:47;15.30;99.90
18207;DHT22;9229;52.354;20.886;2022-09-09T10:24:07;15.40;99.90
18207;DHT22;9229;52.354;20.886;2022-09-09T10:29:26;15.40;99.90
18207;DHT22;9229;52.354;20.886;2022-09-09T10:34:44;15.50;99.90
18207;DHT22;9229;52.354;20.886;2022-09-09T10:39:59;15.60;99.90
18207;DHT22;9229;52.354;20.886;2022-09-09T10:45:16;15.70;99.90
18207;DHT22;9229;52.354;20.886;2022-09-09T10:55:52;15.80;99.90
18207;DHT22;9229;52.354;20.886;2022-09-09T11:00:57;15.90;99.90
18207;DHT22;9229;52.354;20.886;2022-09-09T11:06:05;16.00;99.90
18207;DHT22;9229;52.354;20.886;2022-09-09T11:11:12;16.00;99.90
18207;DHT22;9229;52.354;20.886;2022-09-09T11:16:24;16.10;99.90
18207;DHT22;9229;52.354;20.886;2022-09-09T11:21:29;16.20;99.90
18207;DHT22;9229;52.354;20.886;2022-09-09T11:26:39;16.20;99.90
18207;DHT22;9229;52.354;20.886;2022-09-09T11:31:45;16.30;99.90
18207;DHT22;9229;52.354;20.886;2022-09-09T11:37:08;16.50;99.90
18207;DHT22;9229;52.354;20.886;2022-09-09T11:42:19;16.40;99.90
18207;DHT22;9229;52.354;20.886;2022-09-09T11:47:23;16.50;99.90
18207;DHT22;9229;52.354;20.886;2022-09-09T11:52:39;16.30;99.90
18207;DHT22;9229;52.354;20.886;2022-09-09T11:57:44;16.40;99.90
18207;DHT22;9229;52.354;20.886;2022-09-09T12:02:48;16.50;99.90
18207;DHT22;9229;52.354;20.886;2022-09-09T12:07:52;16.30;99.90
18207;DHT22;9229;52.354;20.886;2022-09-09T12:13:14;16.10;99.90
18207;DHT22;9229;52.354;20.886;2022-09-09T12:18:22;15.40;99.90
18207;DHT22;9229;52.354;20.886;2022-09-09T12:23:32;15.90;99.90
18207;DHT22;9229;52.354;20.886;2022-09-09T12:28:46;15.80;99.90
18207;DHT22;9229;52.354;20.886;2022-09-09T12:33:51;15.90;99.90
18207;DHT22;9229;52.354;20.886;2022-09-09T12:38:53;16.10;99.90
18207;DHT22;9229;52.354;20.886;2022-09-09T12:44:05;16.90;99.90
18207;DHT22;9229;52.354;20.886;2022-09-09T12:49:26;16.10;99.90
18207;DHT22;9229;52.354;20.886;2022-09-09T12:54:29;16.00;99.90
18207;DHT22;9229;52.354;20.886;2022-09-09T12:59:37;15.90;99.90
18207;DHT22;9229;52.354;20.886;2022-09-09T13:04:39;15.90;99.90
18207;DHT22;9229;52.354;20.886;2022-09-09T13:09:42;15.90;99.90
18207;DHT22;9229;52.354;20.886;2022-09-09T13:14:47;16.10;99.90
18207;DHT22;9229;52.354;20.886;2022-09-09T13:19:50;16.20;99.90
18207;DHT22;9229;52.354;20.886;2022-09-09T13:25:01;16.20;99.90
18207;DHT22;9229;52.354;20.886;2022-09-09T13:30:21;16.30;99.90
18207;DHT22;9229;52.354;20.886;2022-09-09T13:35:24;16.10;99.90
18207;DHT22;9229;52.354;20.886;2022-09-09T13:40:26;16.10;99.90
18207;DHT22;9229;52.354;20.886;2022-09-09T13:45:30;16.00;99.90
18207;DHT22;9229;52.354;20.886;2022-09-09T13:50:35;16.10;99.90
18207;DHT22;9229;52.354;20.886;2022-09-09T13:55:37;16.20;99.90
18207;DHT22;9229;52.354;20.886;2022-09-09T14:00:41;16.30;99.90
18207;DHT22;9229;52.354;20.886;2022-09-09T14:05:44;16.20;99.90
18207;DHT22;9229;52.354;20.886;2022-09-09T14:10:46;16.00;99.90
18207;DHT22;9229;52.354;20.886;2022-09-09T14:15:50;15.90;99.90
18207;DHT22;9229;52.354;20.886;2022-09-09T14:20:52;15.90;99.90
18207;DHT22;9229;52.354;20.886;2022-09-09T14:25:53;15.90;99.90
18207;DHT22;9229;52.354;20.886;2022-09-09T14:30:59;15.90;99.90
18207;DHT22;9229;52.354;20.886;2022-09-09T14:36:03;15.90;99.90
18207;DHT22;9229;52.354;20.886;2022-09-09T14:41:05;16.00;99.90
18207;DHT22;9229;52.354;20.886;2022-09-09T14:46:10;16.10;99.90
18207;DHT22;9229;52.354;20.886;2022-09-09T14:51:14;16.10;99.90
18207;DHT22;9229;52.354;20.886;2022-09-09T14:56:18;16.00;99.90
18207;DHT22;9229;52.354;20.886;2022-09-09T15:01:23;16.00;99.90
18207;DHT22;9229;52.354;20.886;2022-09-09T15:06:29;15.90;99.90
18207;DHT22;9229;52.354;20.886;2022-09-09T15:11:35;15.90;99.90
18207;DHT22;9229;52.354;20.886;2022-09-09T15:16:39;15.90;99.90
18207;DHT22;9229;52.354;20.886;2022-09-09T15:21:41;15.70;99.90
18207;DHT22;9229;52.354;20.886;2022-09-09T15:26:43;15.90;99.90
18207;DHT22;9229;52.354;20.886;2022-09-09T15:31:46;15.70;99.90
18207;DHT22;9229;52.354;20.886;2022-09-09T15:36:48;15.70;99.90
18207;DHT22;9229;52.354;20.886;2022-09-09T15:41:50;15.80;99.90
18207;DHT22;9229;52.354;20.886;2022-09-09T15:46:53;15.90;99.90
18207;DHT22;9229;52.354;20.886;2022-09-09T15:51:57;15.80;99.90
18207;DHT22;9229;52.354;20.886;2022-09-09T15:57:02;15.70;99.90
18207;DHT22;9229;52.354;20.886;2022-09-09T16:02:06;15.70;99.90
18207;DHT22;9229;52.354;20.886;2022-09-09T16:07:08;15.70;99.90
18207;DHT22;9229;52.354;20.886;2022-09-09T16:12:10;15.70;99.90
18207;DHT22;9229;52.354;20.886;2022-09-09T16:17:16;15.60;99.90
18207;DHT22;9229;52.354;20.886;2022-09-09T16:22:21;15.50;99.90
18207;DHT22;9229;52.354;20.886;2022-09-09T16:27:25;15.50;99.90
18207;DHT22;9229;52.354;20.886;2022-09-09T16:32:28;15.40;99.90
18207;DHT22;9229;52.354;20.886;2022-09-09T16:37:30;15.40;99.90
18207;DHT22;9229;52.354;20.886;2022-09-09T16:42:34;15.30;99.90
18207;DHT22;9229;52.354;20.886;2022-09-09T16:47:37;15.30;99.90
18207;DHT22;9229;52.354;20.886;2022-09-09T16:52:39;15.30;99.90
18207;DHT22;9229;52.354;20.886;2022-09-09T16:57:41;15.10;99.90
18207;DHT22;9229;52.354;20.886;2022-09-09T17:02:45;15.10;99.90
18207;DHT22;9229;52.354;20.886;2022-09-09T17:07:47;15.00;99.90
18207;DHT22;9229;52.354;20.886;2022-09-09T17:12:48;15.00;99.90
18207;DHT22;9229;52.354;20.886;2022-09-09T17:17:52;14.90;99.90
18207;DHT22;9229;52.354;20.886;2022-09-09T17:22:55;14.90;99.90
18207;DHT22;9229;52.354;20.886;2022-09-09T17:27:57;14.90;99.90
18207;DHT22;9229;52.354;20.886;2022-09-09T17:33:01;14.80;99.90
18207;DHT22;9229;52.354;20.886;2022-09-09T17:38:03;14.80;99.90
18207;DHT22;9229;52.354;20.886;2022-09-09T17:43:06;14.80;99.90
18207;DHT22;9229;52.354;20.886;2022-09-09T17:48:10;14.80;99.90
18207;DHT22;9229;52.354;20.886;2022-09-09T17:53:12;14.80;99.90
18207;DHT22;9229;52.354;20.886;2022-09-09T17:58:14;14.80;99.90
18207;DHT22;9229;52.354;20.886;2022-09-09T18:03:17;14.70;99.90
18207;DHT22;9229;52.354;20.886;2022-09-09T18:08:19;14.70;99.90
18207;DHT22;9229;52.354;20.886;2022-09-09T18:13:21;14.70;99.90
18207;DHT22;9229;52.354;20.886;2022-09-09T18:18:25;14.60;99.90
18207;DHT22;9229;52.354;20.886;2022-09-09T18:23:28;14.70;99.90
18207;DHT22;9229;52.354;20.886;2022-09-09T18:28:30;14.60;99.90
18207;DHT22;9229;52.354;20.886;2022-09-09T18:33:38;14.70;99.90
18207;DHT22;9229;52.354;20.886;2022-09-09T18:38:40;15.20;99.90
18207;DHT22;9229;52.354;20.886;2022-09-09T18:43:43;14.70;99.90
18207;DHT22;9229;52.354;20.886;2022-09-09T18:48:48;14.80;99.90
18207;DHT22;9229;52.354;20.886;2022-09-09T18:53:50;14.70;99.90
18207;DHT22;9229;52.354;20.886;2022-09-09T18:58:56;14.60;99.90
18207;DHT22;9229;52.354;20.886;2022-09-09T19:04:00;14.60;99.90
18207;DHT22;9229;52.354;20.886;2022-09-09T19:09:03;14.60;99.90
18207;DHT22;9229;52.354;20.886;2022-09-09T19:14:06;14.60;99.90
18207;DHT22;9229;52.354;20.886;2022-09-09T19:19:16;14.60;99.90
18207;DHT22;9229;52.354;20.886;2022-09-09T19:24:20;14.50;99.90
18207;DHT22;9229;52.354;20.886;2022-09-09T19:29:25;14.50;99.90
18207;DHT22;9229;52.354;20.886;2022-09-09T19:34:28;14.50;99.90
18207;DHT22;9229;52.354;20.886;2022-09-09T19:39:31;14.50;99.90
18207;DHT22;9229;52.354;20.886;2022-09-09T19:44:33;14.50;99.90
18207;DHT22;9229;52.354;20.886;2022-09-09T19:49:37;14.40;99.90
18207;DHT22;9229;52.354;20.886;2022-09-09T19:54:40;14.40;99.90
18207;DHT22;9229;52.354;20.886;2022-09-09T19:59:42;14.40;99.90
18207;DHT22;9229;52.354;20.886;2022-09-09T20:04:45;14.30;99.90
18207;DHT22;9229;52.354;20.886;2022-09-09T20:09:47;14.30;99.90
18207;DHT22;9229;52.354;20.886;2022-09-09T20:14:49;14.30;99.90
18207;DHT22;9229;52.354;20.886;2022-09-09T20:19:52;14.70;99.90
18207;DHT22;9229;52.354;20.886;2022-09-09T20:24:57;14.30;99.90
18207;DHT22;9229;52.354;20.886;2022-09-09T20:29:59;14.20;99.90
18207;DHT22;9229;52.354;20.886;2022-09-09T20:35:05;14.10;99.90
18207;DHT22;9229;52.354;20.886;2022-09-09T20:40:08;14.10;99.90
18207;DHT22;9229;52.354;20.886;2022-09-09T20:45:10;14.00;99.90
18207;DHT22;9229;52.354;20.886;2022-09-09T20:50:17;13.90;99.90
18207;DHT22;9229;52.354;20.886;2022-09-09T20:55:19;13.80;99.90
18207;DHT22;9229;52.354;20.886;2022-09-09T21:00:21;13.80;99.90
18207;DHT22;9229;52.354;20.886;2022-09-09T21:05:25;13.80;99.90
18207;DHT22;9229;52.354;20.886;2022-09-09T21:10:28;13.80;99.90
18207;DHT22;9229;52.354;20.886;2022-09-09T21:15:32;13.80;99.90
18207;DHT22;9229;52.354;20.886;2022-09-09T21:20:35;13.80;99.90
18207;DHT22;9229;52.354;20.886;2022-09-09T21:25:37;13.80;99.90
18207;DHT22;9229;52.354;20.886;2022-09-09T21:30:39;13.80;99.90
18207;DHT22;9229;52.354;20.886;2022-09-09T21:35:43;13.80;99.90
18207;DHT22;9229;52.354;20.886;2022-09-09T21:40:45;13.80;99.90
18207;DHT22;9229;52.354;20.886;2022-09-09T21:45:49;13.80;99.90
18207;DHT22;9229;52.354;20.886;2022-09-09T21:50:54;13.80;99.90
18207;DHT22;9229;52.354;20.886;2022-09-09T21:56:02;13.80;99.90
18207;DHT22;9229;52.354;20.886;2022-09-09T22:01:08;13.80;99.90
18207;DHT22;9229;52.354;20.886;2022-09-09T22:06:14;14.20;99.90
18207;DHT22;9229;52.354;20.886;2022-09-09T22:11:19;13.80;99.90
18207;DHT22;9229;52.354;20.886;2022-09-09T22:16:22;13.80;99.90
18207;DHT22;9229;52.354;20.886;2022-09-09T22:21:28;14.00;99.90
18207;DHT22;9229;52.354;20.886;2022-09-09T22:26:31;13.80;99.90
18207;DHT22;9229;52.354;20.886;2022-09-09T22:31:34;13.70;99.90
18207;DHT22;9229;52.354;20.886;2022-09-09T22:36:38;13.80;99.90
18207;DHT22;9229;52.354;20.886;2022-09-09T22:41:40;13.80;99.90
18207;DHT22;9229;52.354;20.886;2022-09-09T22:46:42;13.80;99.90
18207;DHT22;9229;52.354;20.886;2022-09-09T22:51:47;13.70;99.90
18207;DHT22;9229;52.354;20.886;2022-09-09T22:56:50;13.70;99.90
18207;DHT22;9229;52.354;20.886;2022-09-09T23:01:52;13.70;99.90
18207;DHT22;9229;52.354;20.886;2022-09-09T23:06:59;13.70;99.90
18207;DHT22;9229;52.354;20.886;2022-09-09T23:12:02;13.60;99.90
18207;DHT22;9229;52.354;20.886;2022-09-09T23:17:05;13.60;99.90
18207;DHT22;9229;52.354;20.886;2022-09-09T23:22:09;13.60;99.90
18207;DHT22;9229;52.354;20.886;2022-09-09T23:27:11;13.60;99.90
18207;DHT22;9229;52.354;20.886;2022-09-09T23:32:13;13.60;99.90
18207;DHT22;9229;52.354;20.886;2022-09-09T23:37:18;13.60;99.90
18207;DHT22;9229;52.354;20.886;2022-09-09T23:42:20;13.50;99.90
18207;DHT22;9229;52.354;20.886;2022-09-09T23:47:23;13.50;99.90
18207;DHT22;9229;52.354;20.886;2022-09-09T23:52:26;13.50;99.90
18207;DHT22;9229;52.354;20.886;2022-09-09T23:57:28;13.50;99.90
